sensor_id;sensor_type;location;lat;lon;timestamp;P1;durP1;ratioP1;P2;durP2;ratioP2
78004;SDS011;67209;51.698;-0.292;2023-02-11T00:02:25;20.40;;;8.25;;
78004;SDS011;67209;51.698;-0.292;2023-02-11T00:04:53;17.55;;;8.13;;
78004;SDS011;67209;51.698;-0.292;2023-02-11T00:07:19;16.95;;;8.60;;
78004;SDS011;67209;51.698;-0.292;2023-02-11T00:09:45;15.65;;;8.07;;
78004;SDS011;67209;51.698;-0.292;2023-02-11T00:12:11;20.85;;;8.73;;
78004;SDS011;67209;51.698;-0.292;2023-02-11T00:14:37;15.73;;;7.50;;
78004;SDS011;67209;51.698;-0.292;2023-02-11T00:17:03;16.60;;;7.85;;
78004;SDS011;67209;51.698;-0.292;2023-02-11T00:19:29;17.38;;;8.02;;
78004;SDS011;67209;51.698;-0.292;2023-02-11T00:21:55;15.38;;;8.07;;
78004;SDS011;67209;51.698;-0.292;2023-02-11T00:24:21;16.08;;;7.45;;
78004;SDS011;67209;51.698;-0.292;2023-02-11T00:26:47;17.85;;;8.13;;
78004;SDS011;67209;51.698;-0.292;2023-02-11T00:29:13;19.27;;;8.48;;
78004;SDS011;67209;51.698;-0.292;2023-02-11T00:31:39;19.38;;;8.43;;
78004;SDS011;67209;51.698;-0.292;2023-02-11T00:34:05;17.42;;;7.40;;
78004;SDS011;67209;51.698;-0.292;2023-02-11T00:36:31;18.67;;;8.35;;
78004;SDS011;67209;51.698;-0.292;2023-02-11T00:38:58;19.58;;;8.38;;
78004;SDS011;67209;51.698;-0.292;2023-02-11T00:41:24;16.33;;;7.70;;
78004;SDS011;67209;51.698;-0.292;2023-02-11T00:43:50;17.02;;;7.78;;
78004;SDS011;67209;51.698;-0.292;2023-02-11T00:46:18;16.80;;;7.03;;
78004;SDS011;67209;51.698;-0.292;2023-02-11T00:48:44;15.60;;;7.63;;
78004;SDS011;67209;51.698;-0.292;2023-02-11T00:51:10;14.77;;;7.30;;
78004;SDS011;67209;51.698;-0.292;2023-02-11T00:53:36;20.13;;;7.95;;
78004;SDS011;67209;51.698;-0.292;2023-02-11T00:56:03;16.90;;;7.03;;
78004;SDS011;67209;51.698;-0.292;2023-02-11T00:58:29;15.48;;;7.25;;
78004;SDS011;67209;51.698;-0.292;2023-02-11T01:00:55;16.63;;;7.90;;
78004;SDS011;67209;51.698;-0.292;2023-02-11T01:03:21;16.45;;;7.68;;
78004;SDS011;67209;51.698;-0.292;2023-02-11T01:05:47;16.55;;;7.38;;
78004;SDS011;67209;51.698;-0.292;2023-02-11T01:08:13;15.70;;;7.47;;
78004;SDS011;67209;51.698;-0.292;2023-02-11T01:10:39;16.70;;;7.53;;
78004;SDS011;67209;51.698;-0.292;2023-02-11T01:13:05;16.83;;;8.00;;
78004;SDS011;67209;51.698;-0.292;2023-02-11T01:15:31;15.20;;;7.28;;
78004;SDS011;67209;51.698;-0.292;2023-02-11T01:17:58;15.13;;;6.00;;
78004;SDS011;67209;51.698;-0.292;2023-02-11T01:20:25;13.32;;;6.65;;
78004;SDS011;67209;51.698;-0.292;2023-02-11T01:22:51;16.20;;;7.03;;
78004;SDS011;67209;51.698;-0.292;2023-02-11T01:25:17;16.75;;;7.50;;
78004;SDS011;67209;51.698;-0.292;2023-02-11T01:27:43;16.23;;;7.85;;
78004;SDS011;67209;51.698;-0.292;2023-02-11T01:30:11;19.55;;;8.10;;
78004;SDS011;67209;51.698;-0.292;2023-02-11T01:32:37;16.98;;;7.22;;
78004;SDS011;67209;51.698;-0.292;2023-02-11T01:35:03;18.75;;;7.60;;
78004;SDS011;67209;51.698;-0.292;2023-02-11T01:37:31;13.40;;;6.22;;
78004;SDS011;67209;51.698;-0.292;2023-02-11T01:39:57;18.58;;;7.13;;
78004;SDS011;67209;51.698;-0.292;2023-02-11T01:42:24;18.85;;;7.38;;
78004;SDS011;67209;51.698;-0.292;2023-02-11T01:44:50;18.10;;;7.75;;
78004;SDS011;67209;51.698;-0.292;2023-02-11T01:47:17;19.45;;;8.30;;
78004;SDS011;67209;51.698;-0.292;2023-02-11T01:49:44;23.13;;;8.15;;
78004;SDS011;67209;51.698;-0.292;2023-02-11T01:52:11;17.02;;;7.88;;
78004;SDS011;67209;51.698;-0.292;2023-02-11T01:54:41;17.10;;;8.20;;
78004;SDS011;67209;51.698;-0.292;2023-02-11T01:57:27;18.75;;;7.78;;
78004;SDS011;67209;51.698;-0.292;2023-02-11T02:02:25;17.35;;;6.93;;
78004;SDS011;67209;51.698;-0.292;2023-02-11T02:04:56;18.08;;;7.60;;
78004;SDS011;67209;51.698;-0.292;2023-02-11T02:07:30;19.50;;;7.38;;
78004;SDS011;67209;51.698;-0.292;2023-02-11T02:09:59;17.25;;;7.13;;
78004;SDS011;67209;51.698;-0.292;2023-02-11T02:12:28;18.30;;;6.63;;
78004;SDS011;67209;51.698;-0.292;2023-02-11T02:15:10;16.60;;;7.82;;
78004;SDS011;67209;51.698;-0.292;2023-02-11T02:17:42;16.20;;;7.22;;
78004;SDS011;67209;51.698;-0.292;2023-02-11T02:22:43;20.50;;;7.63;;
78004;SDS011;67209;51.698;-0.292;2023-02-11T02:27:52;21.33;;;7.38;;
78004;SDS011;67209;51.698;-0.292;2023-02-11T02:35:47;19.13;;;7.97;;
78004;SDS011;67209;51.698;-0.292;2023-02-11T02:40:47;18.08;;;8.15;;
78004;SDS011;67209;51.698;-0.292;2023-02-11T02:43:14;19.63;;;6.82;;
78004;SDS011;67209;51.698;-0.292;2023-02-11T02:45:41;17.65;;;7.47;;
78004;SDS011;67209;51.698;-0.292;2023-02-11T02:48:21;20.42;;;7.30;;
78004;SDS011;67209;51.698;-0.292;2023-02-11T02:50:47;15.93;;;6.53;;
78004;SDS011;67209;51.698;-0.292;2023-02-11T02:53:17;15.27;;;6.75;;
78004;SDS011;67209;51.698;-0.292;2023-02-11T02:58:36;20.80;;;8.25;;
78004;SDS011;67209;51.698;-0.292;2023-02-11T03:03:37;23.35;;;7.50;;
78004;SDS011;67209;51.698;-0.292;2023-02-11T03:06:07;17.95;;;7.85;;
78004;SDS011;67209;51.698;-0.292;2023-02-11T03:08:37;21.23;;;8.05;;
78004;SDS011;67209;51.698;-0.292;2023-02-11T03:11:04;18.63;;;7.10;;
78004;SDS011;67209;51.698;-0.292;2023-02-11T03:13:32;17.38;;;7.93;;
78004;SDS011;67209;51.698;-0.292;2023-02-11T03:16:01;17.27;;;7.70;;
78004;SDS011;67209;51.698;-0.292;2023-02-11T03:18:30;16.55;;;7.50;;
78004;SDS011;67209;51.698;-0.292;2023-02-11T03:20:57;18.92;;;7.50;;
78004;SDS011;67209;51.698;-0.292;2023-02-11T03:23:28;18.77;;;7.70;;
78004;SDS011;67209;51.698;-0.292;2023-02-11T03:25:57;19.60;;;8.57;;
78004;SDS011;67209;51.698;-0.292;2023-02-11T03:28:28;18.55;;;7.95;;
78004;SDS011;67209;51.698;-0.292;2023-02-11T03:30:56;19.02;;;8.23;;
78004;SDS011;67209;51.698;-0.292;2023-02-11T03:33:37;21.10;;;8.65;;
78004;SDS011;67209;51.698;-0.292;2023-02-11T03:36:07;20.33;;;7.55;;
78004;SDS011;67209;51.698;-0.292;2023-02-11T03:38:37;21.70;;;8.25;;
78004;SDS011;67209;51.698;-0.292;2023-02-11T03:41:06;24.63;;;8.90;;
78004;SDS011;67209;51.698;-0.292;2023-02-11T03:43:33;23.75;;;8.38;;
78004;SDS011;67209;51.698;-0.292;2023-02-11T03:46:00;22.88;;;8.52;;
78004;SDS011;67209;51.698;-0.292;2023-02-11T03:50:56;20.40;;;8.30;;
78004;SDS011;67209;51.698;-0.292;2023-02-11T03:53:23;20.55;;;7.97;;
78004;SDS011;67209;51.698;-0.292;2023-02-11T03:55:49;21.73;;;8.32;;
78004;SDS011;67209;51.698;-0.292;2023-02-11T03:58:16;21.02;;;8.82;;
78004;SDS011;67209;51.698;-0.292;2023-02-11T04:00:43;22.70;;;8.63;;
78004;SDS011;67209;51.698;-0.292;2023-02-11T04:03:09;19.50;;;7.82;;
78004;SDS011;67209;51.698;-0.292;2023-02-11T04:05:35;23.40;;;9.60;;
78004;SDS011;67209;51.698;-0.292;2023-02-11T04:08:02;21.02;;;9.32;;
78004;SDS011;67209;51.698;-0.292;2023-02-11T04:10:28;21.40;;;8.65;;
78004;SDS011;67209;51.698;-0.292;2023-02-11T04:12:54;22.55;;;9.60;;
78004;SDS011;67209;51.698;-0.292;2023-02-11T04:15:20;22.02;;;9.15;;
78004;SDS011;67209;51.698;-0.292;2023-02-11T04:17:46;19.70;;;9.23;;
78004;SDS011;67209;51.698;-0.292;2023-02-11T04:20:12;21.42;;;9.05;;
78004;SDS011;67209;51.698;-0.292;2023-02-11T04:22:38;19.88;;;8.77;;
78004;SDS011;67209;51.698;-0.292;2023-02-11T04:25:04;21.58;;;8.98;;
78004;SDS011;67209;51.698;-0.292;2023-02-11T04:27:30;21.83;;;8.93;;
78004;SDS011;67209;51.698;-0.292;2023-02-11T04:29:57;19.02;;;8.45;;
78004;SDS011;67209;51.698;-0.292;2023-02-11T04:32:23;19.65;;;9.23;;
78004;SDS011;67209;51.698;-0.292;2023-02-11T04:34:49;20.75;;;8.57;;
78004;SDS011;67209;51.698;-0.292;2023-02-11T04:37:15;18.88;;;8.90;;
78004;SDS011;67209;51.698;-0.292;2023-02-11T04:39:41;18.65;;;8.55;;
78004;SDS011;67209;51.698;-0.292;2023-02-11T04:42:07;22.08;;;8.85;;
78004;SDS011;67209;51.698;-0.292;2023-02-11T04:44:33;20.48;;;8.05;;
78004;SDS011;67209;51.698;-0.292;2023-02-11T04:46:59;17.92;;;8.27;;
78004;SDS011;67209;51.698;-0.292;2023-02-11T04:49:25;21.77;;;9.50;;
78004;SDS011;67209;51.698;-0.292;2023-02-11T04:51:51;21.05;;;8.90;;
78004;SDS011;67209;51.698;-0.292;2023-02-11T04:54:17;21.08;;;8.15;;
78004;SDS011;67209;51.698;-0.292;2023-02-11T04:56:44;21.73;;;8.07;;
78004;SDS011;67209;51.698;-0.292;2023-02-11T04:59:10;21.10;;;8.18;;
78004;SDS011;67209;51.698;-0.292;2023-02-11T05:01:37;21.88;;;9.05;;
78004;SDS011;67209;51.698;-0.292;2023-02-11T05:04:03;24.20;;;9.82;;
78004;SDS011;67209;51.698;-0.292;2023-02-11T05:06:29;24.88;;;8.88;;
78004;SDS011;67209;51.698;-0.292;2023-02-11T05:08:55;19.60;;;8.57;;
78004;SDS011;67209;51.698;-0.292;2023-02-11T05:11:22;22.10;;;8.68;;
78004;SDS011;67209;51.698;-0.292;2023-02-11T05:13:48;21.73;;;9.05;;
78004;SDS011;67209;51.698;-0.292;2023-02-11T05:16:15;20.70;;;8.43;;
78004;SDS011;67209;51.698;-0.292;2023-02-11T05:18:41;21.20;;;8.90;;
78004;SDS011;67209;51.698;-0.292;2023-02-11T05:21:09;17.77;;;7.57;;
78004;SDS011;67209;51.698;-0.292;2023-02-11T05:23:35;19.15;;;8.13;;
78004;SDS011;67209;51.698;-0.292;2023-02-11T05:26:01;19.58;;;7.88;;
78004;SDS011;67209;51.698;-0.292;2023-02-11T05:28:28;18.98;;;8.63;;
78004;SDS011;67209;51.698;-0.292;2023-02-11T05:30:54;20.02;;;8.35;;
78004;SDS011;67209;51.698;-0.292;2023-02-11T05:33:20;18.35;;;9.07;;
78004;SDS011;67209;51.698;-0.292;2023-02-11T05:35:46;22.58;;;7.75;;
78004;SDS011;67209;51.698;-0.292;2023-02-11T05:38:12;19.02;;;8.15;;
78004;SDS011;67209;51.698;-0.292;2023-02-11T05:40:39;19.48;;;8.68;;
78004;SDS011;67209;51.698;-0.292;2023-02-11T05:43:04;16.65;;;8.07;;
78004;SDS011;67209;51.698;-0.292;2023-02-11T05:45:31;20.10;;;8.93;;
78004;SDS011;67209;51.698;-0.292;2023-02-11T05:47:58;17.10;;;8.27;;
78004;SDS011;67209;51.698;-0.292;2023-02-11T05:50:24;16.15;;;7.45;;
78004;SDS011;67209;51.698;-0.292;2023-02-11T05:52:50;19.42;;;7.93;;
78004;SDS011;67209;51.698;-0.292;2023-02-11T05:55:16;17.25;;;7.03;;
78004;SDS011;67209;51.698;-0.292;2023-02-11T05:57:42;20.67;;;7.53;;
78004;SDS011;67209;51.698;-0.292;2023-02-11T06:00:08;19.52;;;8.98;;
78004;SDS011;67209;51.698;-0.292;2023-02-11T06:02:34;19.40;;;7.50;;
78004;SDS011;67209;51.698;-0.292;2023-02-11T06:05:00;17.38;;;7.60;;
78004;SDS011;67209;51.698;-0.292;2023-02-11T06:07:26;15.88;;;7.35;;
78004;SDS011;67209;51.698;-0.292;2023-02-11T06:09:52;16.92;;;8.45;;
78004;SDS011;67209;51.698;-0.292;2023-02-11T06:12:18;18.05;;;7.57;;
78004;SDS011;67209;51.698;-0.292;2023-02-11T06:14:45;16.85;;;7.45;;
78004;SDS011;67209;51.698;-0.292;2023-02-11T06:17:11;15.65;;;7.50;;
78004;SDS011;67209;51.698;-0.292;2023-02-11T06:19:37;16.65;;;7.85;;
78004;SDS011;67209;51.698;-0.292;2023-02-11T06:22:03;21.13;;;7.88;;
78004;SDS011;67209;51.698;-0.292;2023-02-11T06:24:29;17.50;;;7.03;;
78004;SDS011;67209;51.698;-0.292;2023-02-11T06:26:55;17.48;;;7.30;;
78004;SDS011;67209;51.698;-0.292;2023-02-11T06:29:21;18.20;;;7.60;;
78004;SDS011;67209;51.698;-0.292;2023-02-11T06:31:47;18.95;;;7.20;;
78004;SDS011;67209;51.698;-0.292;2023-02-11T06:34:13;14.98;;;6.82;;
78004;SDS011;67209;51.698;-0.292;2023-02-11T06:36:39;16.27;;;6.95;;
78004;SDS011;67209;51.698;-0.292;2023-02-11T06:39:06;18.17;;;6.72;;
78004;SDS011;67209;51.698;-0.292;2023-02-11T06:41:32;13.73;;;5.72;;
78004;SDS011;67209;51.698;-0.292;2023-02-11T06:43:58;19.42;;;6.88;;
78004;SDS011;67209;51.698;-0.292;2023-02-11T06:46:24;17.02;;;7.13;;
78004;SDS011;67209;51.698;-0.292;2023-02-11T06:48:50;14.68;;;6.63;;
78004;SDS011;67209;51.698;-0.292;2023-02-11T06:51:16;16.40;;;6.72;;
78004;SDS011;67209;51.698;-0.292;2023-02-11T06:53:43;15.32;;;7.60;;
78004;SDS011;67209;51.698;-0.292;2023-02-11T06:56:18;16.05;;;6.72;;
78004;SDS011;67209;51.698;-0.292;2023-02-11T06:58:45;15.20;;;7.05;;
78004;SDS011;67209;51.698;-0.292;2023-02-11T07:01:13;14.23;;;6.82;;
78004;SDS011;67209;51.698;-0.292;2023-02-11T07:03:40;17.35;;;6.57;;
78004;SDS011;67209;51.698;-0.292;2023-02-11T07:06:07;13.90;;;6.75;;
78004;SDS011;67209;51.698;-0.292;2023-02-11T07:08:34;15.52;;;6.82;;
78004;SDS011;67209;51.698;-0.292;2023-02-11T07:11:00;15.02;;;5.90;;
78004;SDS011;67209;51.698;-0.292;2023-02-11T07:13:26;13.70;;;6.78;;
78004;SDS011;67209;51.698;-0.292;2023-02-11T07:15:52;14.93;;;6.43;;
78004;SDS011;67209;51.698;-0.292;2023-02-11T07:18:18;15.07;;;5.88;;
78004;SDS011;67209;51.698;-0.292;2023-02-11T07:20:44;16.15;;;6.30;;
78004;SDS011;67209;51.698;-0.292;2023-02-11T07:23:10;14.48;;;6.28;;
78004;SDS011;67209;51.698;-0.292;2023-02-11T07:25:36;12.48;;;6.22;;
78004;SDS011;67209;51.698;-0.292;2023-02-11T07:28:02;11.73;;;5.50;;
78004;SDS011;67209;51.698;-0.292;2023-02-11T07:30:29;13.02;;;6.38;;
78004;SDS011;67209;51.698;-0.292;2023-02-11T07:32:55;17.13;;;6.70;;
78004;SDS011;67209;51.698;-0.292;2023-02-11T07:35:21;13.02;;;6.60;;
78004;SDS011;67209;51.698;-0.292;2023-02-11T07:37:47;12.18;;;5.78;;
78004;SDS011;67209;51.698;-0.292;2023-02-11T07:40:13;13.80;;;5.60;;
78004;SDS011;67209;51.698;-0.292;2023-02-11T07:42:39;13.63;;;5.97;;
78004;SDS011;67209;51.698;-0.292;2023-02-11T07:45:05;14.95;;;5.45;;
78004;SDS011;67209;51.698;-0.292;2023-02-11T07:47:33;81.25;;;9.82;;
78004;SDS011;67209;51.698;-0.292;2023-02-11T07:49:59;12.77;;;5.10;;
78004;SDS011;67209;51.698;-0.292;2023-02-11T07:52:28;13.00;;;5.75;;
78004;SDS011;67209;51.698;-0.292;2023-02-11T07:54:54;13.95;;;5.78;;
78004;SDS011;67209;51.698;-0.292;2023-02-11T07:57:20;11.55;;;6.18;;
78004;SDS011;67209;51.698;-0.292;2023-02-11T07:59:46;10.13;;;5.00;;
78004;SDS011;67209;51.698;-0.292;2023-02-11T08:02:12;9.88;;;5.10;;
78004;SDS011;67209;51.698;-0.292;2023-02-11T08:04:38;11.88;;;5.80;;
78004;SDS011;67209;51.698;-0.292;2023-02-11T08:07:04;10.15;;;4.75;;
78004;SDS011;67209;51.698;-0.292;2023-02-11T08:09:30;13.93;;;5.90;;
78004;SDS011;67209;51.698;-0.292;2023-02-11T08:11:57;11.38;;;5.07;;
78004;SDS011;67209;51.698;-0.292;2023-02-11T08:14:23;12.35;;;5.03;;
78004;SDS011;67209;51.698;-0.292;2023-02-11T08:16:49;13.23;;;4.40;;
78004;SDS011;67209;51.698;-0.292;2023-02-11T08:19:15;12.25;;;5.22;;
78004;SDS011;67209;51.698;-0.292;2023-02-11T08:21:41;11.77;;;4.63;;
78004;SDS011;67209;51.698;-0.292;2023-02-11T08:24:07;15.85;;;5.60;;
78004;SDS011;67209;51.698;-0.292;2023-02-11T08:26:34;11.60;;;5.57;;
78004;SDS011;67209;51.698;-0.292;2023-02-11T08:29:01;12.02;;;5.20;;
78004;SDS011;67209;51.698;-0.292;2023-02-11T08:31:34;12.25;;;4.90;;
78004;SDS011;67209;51.698;-0.292;2023-02-11T08:34:01;16.10;;;5.10;;
78004;SDS011;67209;51.698;-0.292;2023-02-11T08:36:28;11.45;;;4.97;;
78004;SDS011;67209;51.698;-0.292;2023-02-11T08:38:54;10.20;;;3.92;;
78004;SDS011;67209;51.698;-0.292;2023-02-11T08:41:21;11.70;;;4.78;;
78004;SDS011;67209;51.698;-0.292;2023-02-11T08:43:47;9.88;;;4.10;;
78004;SDS011;67209;51.698;-0.292;2023-02-11T08:46:14;10.68;;;4.57;;
78004;SDS011;67209;51.698;-0.292;2023-02-11T08:48:41;13.27;;;4.05;;
78004;SDS011;67209;51.698;-0.292;2023-02-11T08:51:08;11.57;;;4.25;;
78004;SDS011;67209;51.698;-0.292;2023-02-11T08:53:34;10.68;;;4.07;;
78004;SDS011;67209;51.698;-0.292;2023-02-11T08:56:00;9.23;;;3.78;;
78004;SDS011;67209;51.698;-0.292;2023-02-11T08:58:27;6.47;;;3.13;;
78004;SDS011;67209;51.698;-0.292;2023-02-11T09:00:53;10.45;;;3.80;;
78004;SDS011;67209;51.698;-0.292;2023-02-11T09:03:19;8.52;;;3.80;;
78004;SDS011;67209;51.698;-0.292;2023-02-11T09:05:46;7.75;;;3.35;;
78004;SDS011;67209;51.698;-0.292;2023-02-11T09:08:12;10.02;;;4.32;;
78004;SDS011;67209;51.698;-0.292;2023-02-11T09:10:38;7.60;;;3.70;;
78004;SDS011;67209;51.698;-0.292;2023-02-11T09:13:05;9.65;;;4.05;;
78004;SDS011;67209;51.698;-0.292;2023-02-11T09:15:31;11.15;;;4.07;;
78004;SDS011;67209;51.698;-0.292;2023-02-11T09:17:57;8.15;;;3.50;;
78004;SDS011;67209;51.698;-0.292;2023-02-11T09:20:23;9.43;;;3.70;;
78004;SDS011;67209;51.698;-0.292;2023-02-11T09:22:50;10.82;;;3.70;;
78004;SDS011;67209;51.698;-0.292;2023-02-11T09:25:16;7.50;;;2.78;;
78004;SDS011;67209;51.698;-0.292;2023-02-11T09:27:42;7.75;;;3.38;;
78004;SDS011;67209;51.698;-0.292;2023-02-11T09:30:08;7.78;;;3.17;;
78004;SDS011;67209;51.698;-0.292;2023-02-11T09:32:35;8.90;;;3.30;;
78004;SDS011;67209;51.698;-0.292;2023-02-11T09:35:01;6.93;;;3.42;;
78004;SDS011;67209;51.698;-0.292;2023-02-11T09:37:27;8.13;;;2.92;;
78004;SDS011;67209;51.698;-0.292;2023-02-11T09:39:53;6.90;;;3.05;;
78004;SDS011;67209;51.698;-0.292;2023-02-11T09:42:23;9.00;;;3.42;;
78004;SDS011;67209;51.698;-0.292;2023-02-11T09:44:57;5.78;;;2.80;;
78004;SDS011;67209;51.698;-0.292;2023-02-11T09:47:32;6.55;;;3.13;;
78004;SDS011;67209;51.698;-0.292;2023-02-11T09:49:59;7.25;;;3.20;;
78004;SDS011;67209;51.698;-0.292;2023-02-11T09:54:56;6.90;;;2.92;;
78004;SDS011;67209;51.698;-0.292;2023-02-11T09:57:24;6.35;;;2.92;;
78004;SDS011;67209;51.698;-0.292;2023-02-11T09:59:51;7.22;;;2.80;;
78004;SDS011;67209;51.698;-0.292;2023-02-11T10:02:23;6.22;;;2.65;;
78004;SDS011;67209;51.698;-0.292;2023-02-11T10:25:47;5.65;;;2.38;;
78004;SDS011;67209;51.698;-0.292;2023-02-11T10:28:18;7.03;;;3.00;;
78004;SDS011;67209;51.698;-0.292;2023-02-11T10:33:30;5.45;;;2.42;;
78004;SDS011;67209;51.698;-0.292;2023-02-11T10:35:57;5.30;;;2.40;;
78004;SDS011;67209;51.698;-0.292;2023-02-11T10:38:24;5.00;;;2.30;;
78004;SDS011;67209;51.698;-0.292;2023-02-11T10:40:51;11.15;;;3.17;;
78004;SDS011;67209;51.698;-0.292;2023-02-11T10:43:18;6.32;;;2.45;;
78004;SDS011;67209;51.698;-0.292;2023-02-11T10:45:49;5.68;;;2.47;;
78004;SDS011;67209;51.698;-0.292;2023-02-11T10:53:35;4.57;;;2.35;;
78004;SDS011;67209;51.698;-0.292;2023-02-11T10:56:02;6.07;;;2.78;;
78004;SDS011;67209;51.698;-0.292;2023-02-11T11:00:55;4.15;;;2.15;;
78004;SDS011;67209;51.698;-0.292;2023-02-11T11:03:28;4.15;;;2.10;;
78004;SDS011;67209;51.698;-0.292;2023-02-11T11:05:57;5.63;;;1.95;;
78004;SDS011;67209;51.698;-0.292;2023-02-11T11:08:36;6.38;;;1.92;;
78004;SDS011;67209;51.698;-0.292;2023-02-11T11:11:05;6.10;;;2.50;;
78004;SDS011;67209;51.698;-0.292;2023-02-11T11:13:33;4.40;;;2.15;;
78004;SDS011;67209;51.698;-0.292;2023-02-11T11:18:42;7.20;;;2.90;;
78004;SDS011;67209;51.698;-0.292;2023-02-11T11:23:47;5.43;;;2.53;;
78004;SDS011;67209;51.698;-0.292;2023-02-11T11:26:15;4.35;;;2.58;;
78004;SDS011;67209;51.698;-0.292;2023-02-11T11:31:21;5.53;;;2.63;;
78004;SDS011;67209;51.698;-0.292;2023-02-11T11:33:48;7.15;;;2.88;;
78004;SDS011;67209;51.698;-0.292;2023-02-11T11:36:16;4.68;;;1.92;;
78004;SDS011;67209;51.698;-0.292;2023-02-11T11:38:45;3.22;;;2.10;;
78004;SDS011;67209;51.698;-0.292;2023-02-11T11:41:18;5.15;;;2.10;;
78004;SDS011;67209;51.698;-0.292;2023-02-11T11:43:55;5.15;;;2.00;;
78004;SDS011;67209;51.698;-0.292;2023-02-11T11:46:28;8.23;;;2.53;;
78004;SDS011;67209;51.698;-0.292;2023-02-11T11:48:57;4.47;;;2.15;;
78004;SDS011;67209;51.698;-0.292;2023-02-11T11:51:25;7.72;;;2.25;;
78004;SDS011;67209;51.698;-0.292;2023-02-11T11:53:54;5.57;;;2.33;;
78004;SDS011;67209;51.698;-0.292;2023-02-11T11:56:25;5.55;;;2.38;;
78004;SDS011;67209;51.698;-0.292;2023-02-11T11:58:52;5.32;;;2.47;;
78004;SDS011;67209;51.698;-0.292;2023-02-11T12:06:38;4.88;;;2.15;;
78004;SDS011;67209;51.698;-0.292;2023-02-11T12:16:52;6.20;;;2.78;;
78004;SDS011;67209;51.698;-0.292;2023-02-11T12:27:11;6.80;;;2.10;;
78004;SDS011;67209;51.698;-0.292;2023-02-11T12:35:12;2.55;;;1.48;;
78004;SDS011;67209;51.698;-0.292;2023-02-11T12:40:25;4.82;;;2.05;;
78004;SDS011;67209;51.698;-0.292;2023-02-11T12:46:14;4.00;;;2.05;;
78004;SDS011;67209;51.698;-0.292;2023-02-11T12:56:02;4.22;;;1.67;;
78004;SDS011;67209;51.698;-0.292;2023-02-11T12:58:30;3.55;;;1.83;;
78004;SDS011;67209;51.698;-0.292;2023-02-11T13:00:59;5.18;;;1.70;;
78004;SDS011;67209;51.698;-0.292;2023-02-11T13:03:30;7.05;;;1.75;;
78004;SDS011;67209;51.698;-0.292;2023-02-11T13:06:04;3.28;;;1.73;;
78004;SDS011;67209;51.698;-0.292;2023-02-11T13:08:32;5.70;;;1.67;;
78004;SDS011;67209;51.698;-0.292;2023-02-11T13:11:00;3.15;;;1.40;;
78004;SDS011;67209;51.698;-0.292;2023-02-11T13:13:28;3.65;;;1.40;;
78004;SDS011;67209;51.698;-0.292;2023-02-11T13:15:57;3.67;;;1.20;;
78004;SDS011;67209;51.698;-0.292;2023-02-11T13:18:51;3.38;;;1.40;;
78004;SDS011;67209;51.698;-0.292;2023-02-11T13:31:53;4.95;;;1.50;;
78004;SDS011;67209;51.698;-0.292;2023-02-11T13:34:23;5.50;;;1.75;;
78004;SDS011;67209;51.698;-0.292;2023-02-11T13:36:53;4.80;;;1.45;;
78004;SDS011;67209;51.698;-0.292;2023-02-11T13:39:20;3.83;;;1.30;;
78004;SDS011;67209;51.698;-0.292;2023-02-11T13:41:46;2.10;;;1.30;;
78004;SDS011;67209;51.698;-0.292;2023-02-11T13:47:03;4.38;;;1.27;;
78004;SDS011;67209;51.698;-0.292;2023-02-11T13:49:30;2.78;;;1.27;;
78004;SDS011;67209;51.698;-0.292;2023-02-11T13:51:58;2.47;;;1.10;;
78004;SDS011;67209;51.698;-0.292;2023-02-11T13:54:58;2.25;;;0.85;;
78004;SDS011;67209;51.698;-0.292;2023-02-11T13:59:53;5.75;;;1.38;;
78004;SDS011;67209;51.698;-0.292;2023-02-11T14:02:21;4.93;;;1.48;;
78004;SDS011;67209;51.698;-0.292;2023-02-11T14:08:13;4.70;;;1.23;;
78004;SDS011;67209;51.698;-0.292;2023-02-11T14:10:57;6.75;;;1.15;;
78004;SDS011;67209;51.698;-0.292;2023-02-11T14:13:30;3.72;;;1.00;;
78004;SDS011;67209;51.698;-0.292;2023-02-11T14:16:09;4.43;;;1.63;;
78004;SDS011;67209;51.698;-0.292;2023-02-11T14:21:38;2.50;;;1.20;;
78004;SDS011;67209;51.698;-0.292;2023-02-11T14:36:37;4.93;;;1.38;;
78004;SDS011;67209;51.698;-0.292;2023-02-11T14:41:43;3.17;;;1.30;;
78004;SDS011;67209;51.698;-0.292;2023-02-11T14:46:36;2.97;;;1.08;;
78004;SDS011;67209;51.698;-0.292;2023-02-11T14:49:02;5.80;;;1.58;;
78004;SDS011;67209;51.698;-0.292;2023-02-11T14:51:30;1.90;;;1.08;;
78004;SDS011;67209;51.698;-0.292;2023-02-11T14:54:00;2.03;;;0.90;;
78004;SDS011;67209;51.698;-0.292;2023-02-11T14:56:28;3.20;;;1.30;;
78004;SDS011;67209;51.698;-0.292;2023-02-11T14:59:01;3.72;;;1.00;;
78004;SDS011;67209;51.698;-0.292;2023-02-11T15:03:54;3.65;;;1.35;;
78004;SDS011;67209;51.698;-0.292;2023-02-11T15:06:24;4.72;;;1.25;;
78004;SDS011;67209;51.698;-0.292;2023-02-11T15:08:55;5.63;;;1.20;;
78004;SDS011;67209;51.698;-0.292;2023-02-11T15:11:24;1.80;;;1.30;;
78004;SDS011;67209;51.698;-0.292;2023-02-11T15:13:51;5.47;;;1.30;;
78004;SDS011;67209;51.698;-0.292;2023-02-11T15:16:21;4.47;;;1.40;;
78004;SDS011;67209;51.698;-0.292;2023-02-11T15:18:50;3.50;;;1.38;;
78004;SDS011;67209;51.698;-0.292;2023-02-11T15:21:20;4.07;;;1.70;;
78004;SDS011;67209;51.698;-0.292;2023-02-11T15:24:01;2.53;;;1.08;;
78004;SDS011;67209;51.698;-0.292;2023-02-11T15:26:27;3.13;;;1.13;;
78004;SDS011;67209;51.698;-0.292;2023-02-11T15:28:53;3.13;;;1.30;;
78004;SDS011;67209;51.698;-0.292;2023-02-11T15:31:21;2.17;;;1.35;;
78004;SDS011;67209;51.698;-0.292;2023-02-11T15:33:47;4.90;;;1.20;;
78004;SDS011;67209;51.698;-0.292;2023-02-11T15:36:14;4.80;;;1.55;;
78004;SDS011;67209;51.698;-0.292;2023-02-11T15:38:40;4.28;;;1.60;;
78004;SDS011;67209;51.698;-0.292;2023-02-11T15:41:06;3.40;;;1.48;;
78004;SDS011;67209;51.698;-0.292;2023-02-11T15:46:08;2.42;;;1.50;;
78004;SDS011;67209;51.698;-0.292;2023-02-11T15:51:07;2.90;;;1.77;;
78004;SDS011;67209;51.698;-0.292;2023-02-11T15:53:38;2.42;;;1.00;;
78004;SDS011;67209;51.698;-0.292;2023-02-11T15:56:14;2.10;;;1.27;;
78004;SDS011;67209;51.698;-0.292;2023-02-11T15:58:42;3.92;;;1.50;;
78004;SDS011;67209;51.698;-0.292;2023-02-11T16:01:09;3.20;;;1.23;;
78004;SDS011;67209;51.698;-0.292;2023-02-11T16:03:36;8.40;;;2.08;;
78004;SDS011;67209;51.698;-0.292;2023-02-11T16:06:22;6.18;;;1.38;;
78004;SDS011;67209;51.698;-0.292;2023-02-11T16:08:59;3.72;;;1.17;;
78004;SDS011;67209;51.698;-0.292;2023-02-11T16:11:35;3.30;;;1.30;;
78004;SDS011;67209;51.698;-0.292;2023-02-11T16:14:18;2.47;;;1.40;;
78004;SDS011;67209;51.698;-0.292;2023-02-11T16:16:45;2.00;;;1.23;;
78004;SDS011;67209;51.698;-0.292;2023-02-11T16:19:16;2.20;;;1.58;;
78004;SDS011;67209;51.698;-0.292;2023-02-11T16:21:43;2.90;;;1.30;;
78004;SDS011;67209;51.698;-0.292;2023-02-11T16:24:25;3.03;;;1.50;;
78004;SDS011;67209;51.698;-0.292;2023-02-11T16:26:53;2.97;;;1.23;;
78004;SDS011;67209;51.698;-0.292;2023-02-11T16:29:26;2.60;;;1.40;;
78004;SDS011;67209;51.698;-0.292;2023-02-11T16:32:03;2.75;;;0.80;;
78004;SDS011;67209;51.698;-0.292;2023-02-11T16:34:29;2.75;;;1.17;;
78004;SDS011;67209;51.698;-0.292;2023-02-11T16:36:55;4.65;;;1.20;;
78004;SDS011;67209;51.698;-0.292;2023-02-11T16:39:21;5.28;;;2.53;;
78004;SDS011;67209;51.698;-0.292;2023-02-11T16:41:47;4.82;;;2.20;;
78004;SDS011;67209;51.698;-0.292;2023-02-11T16:44:17;5.60;;;1.70;;
78004;SDS011;67209;51.698;-0.292;2023-02-11T16:46:43;3.80;;;1.45;;
78004;SDS011;67209;51.698;-0.292;2023-02-11T16:49:10;4.43;;;1.45;;
78004;SDS011;67209;51.698;-0.292;2023-02-11T16:51:39;4.38;;;1.35;;
78004;SDS011;67209;51.698;-0.292;2023-02-11T16:54:07;1.63;;;1.20;;
78004;SDS011;67209;51.698;-0.292;2023-02-11T16:56:34;3.78;;;1.50;;
78004;SDS011;67209;51.698;-0.292;2023-02-11T16:59:00;5.63;;;1.33;;
78004;SDS011;67209;51.698;-0.292;2023-02-11T17:01:26;3.10;;;1.50;;
78004;SDS011;67209;51.698;-0.292;2023-02-11T17:03:52;2.65;;;1.48;;